Time;durP1;ratioP1;P1;durP2;ratioP2;P2;SDS_P1;SDS_P2;PMS_P1;PMS_P2;Temp;Humidity;BMP_temperature;BMP_pressure;BME280_temperature;BME280_humidity;BME280_pressure;Samples;Min_cycle;Max_cycle;Signal;HPM_P1;HPM_P2
2024/01/13 00:02:20;;;;;;;;;;;-1.20;99.90;;;;;;5116406;28;20375;-73
2024/01/13 00:04:46;;;;;;;;;;;-1.20;99.90;;;;;;5116511;28;19915;-73
2024/01/13 00:07:11;;;;;;;;;;;-1.20;99.90;;;;;;5116200;28;19904;-73
2024/01/13 00:09:37;;;;;;;;;;;-1.20;99.90;;;;;;5115090;28;19903;-73
2024/01/13 00:12:03;;;;;;;;;;;-1.20;99.90;;;;;;5116378;28;20295;-73
2024/01/13 00:14:28;;;;;;;;;;;-1.20;99.90;;;;;;5116054;28;20295;-73
2024/01/13 00:16:54;;;;;;;;;;;-1.20;99.90;;;;;;5110929;28;19911;-73
2024/01/13 00:19:19;;;;;;;;;;;-1.30;99.90;;;;;;5116150;28;19915;-73
2024/01/13 00:21:45;;;;;;;;;;;-1.30;99.90;;;;;;5116539;28;19918;-74
2024/01/13 00:24:10;;;;;;;;;;;-1.30;99.90;;;;;;5116142;28;19914;-73
2024/01/13 00:26:36;;;;;;;;;;;-1.30;99.90;;;;;;5116085;28;20563;-74
2024/01/13 00:29:01;;;;;;;;;;;-1.30;99.90;;;;;;5115786;28;19908;-74
2024/01/13 00:31:27;;;;;;;;;;;-1.30;99.90;;;;;;5112616;28;19935;-73
2024/01/13 00:33:52;;;;;;;;;;;-1.30;99.90;;;;;;5113577;28;20429;-73
2024/01/13 00:36:18;;;;;;;;;;;-1.30;99.90;;;;;;5114637;28;19953;-74
2024/01/13 00:38:44;;;;;;;;;;;-1.30;99.90;;;;;;5115744;28;19903;-73
2024/01/13 00:41:09;;;;;;;;;;;-1.30;99.90;;;;;;5114734;28;19999;-73
2024/01/13 00:43:35;;;;;;;;;;;-1.30;99.90;;;;;;5114725;28;19954;-74
2024/01/13 00:46:00;;;;;;;;;;;-1.30;99.90;;;;;;5115936;28;19946;-73
2024/01/13 00:48:26;;;;;;;;;;;-1.30;99.90;;;;;;5115770;28;19916;-73
2024/01/13 00:50:51;;;;;;;;;;;-1.20;99.90;;;;;;5118558;28;20283;-73
2024/01/13 00:53:17;;;;;;;;;;;-1.20;99.90;;;;;;5120019;28;19908;-73
2024/01/13 00:55:42;;;;;;;;;;;-1.20;99.90;;;;;;5119605;28;19911;-74
2024/01/13 00:58:08;;;;;;;;;;;-1.20;99.90;;;;;;5119724;28;19904;-74
2024/01/13 01:00:33;;;;;;;;;;;-1.20;99.90;;;;;;5119954;28;19904;-73
2024/01/13 01:02:59;;;;;;;;;;;-1.30;99.90;;;;;;5120219;28;19910;-74
2024/01/13 01:05:24;;;;;;;;;;;-1.30;99.90;;;;;;5119982;27;19947;-73
2024/01/13 01:07:50;;;;;;;;;;;-1.30;99.90;;;;;;5119282;28;20371;-74
2024/01/13 01:10:16;;;;;;;;;;;-1.30;99.90;;;;;;5119682;28;19911;-74
2024/01/13 01:12:42;;;;;;;;;;;-1.30;99.90;;;;;;5118132;28;19907;-74
2024/01/13 01:15:07;;;;;;;;;;;-1.30;99.90;;;;;;5116218;28;19907;-74
2024/01/13 01:17:33;;;;;;;;;;;-1.40;99.90;;;;;;5113875;28;19904;-74
2024/01/13 01:19:58;;;;;;;;;;;-1.40;99.90;;;;;;5119638;28;19910;-74
2024/01/13 01:22:24;;;;;;;;;;;-1.50;99.90;;;;;;5117975;28;19911;-74
2024/01/13 01:24:49;;;;;;;;;;;-1.60;99.90;;;;;;5119390;28;19904;-74
2024/01/13 01:27:15;;;;;;;;;;;-1.60;99.90;;;;;;5117837;28;19904;-74
2024/01/13 01:29:40;;;;;;;;;;;-1.70;99.90;;;;;;5117932;28;19903;-75
2024/01/13 01:32:06;;;;;;;;;;;-1.70;99.90;;;;;;5112445;28;19937;-74
2024/01/13 01:34:31;;;;;;;;;;;-1.70;99.90;;;;;;5119454;28;19948;-75
2024/01/13 01:36:57;;;;;;;;;;;-1.80;99.90;;;;;;5117733;28;19908;-75
2024/01/13 01:39:23;;;;;;;;;;;-1.80;99.90;;;;;;5117728;28;19961;-75
2024/01/13 01:41:48;;;;;;;;;;;-1.80;99.90;;;;;;5118549;28;19991;-75
2024/01/13 01:44:14;;;;;;;;;;;-1.80;99.90;;;;;;5119068;28;19904;-75
2024/01/13 01:46:39;;;;;;;;;;;-1.90;99.90;;;;;;5119061;28;19904;-75
2024/01/13 01:49:05;;;;;;;;;;;-1.90;99.90;;;;;;5119105;28;20011;-75
2024/01/13 01:51:31;;;;;;;;;;;-1.90;99.90;;;;;;5118872;28;19903;-75
2024/01/13 01:53:57;;;;;;;;;;;-2.00;99.90;;;;;;5118833;28;20355;-75
2024/01/13 01:56:25;;;;;;;;;;;-2.00;99.90;;;;;;5118294;28;19996;-75
2024/01/13 01:58:52;;;;;;;;;;;-2.00;99.90;;;;;;5118897;28;19903;-74
2024/01/13 02:01:19;;;;;;;;;;;-2.00;99.90;;;;;;5116264;28;19924;-74
2024/01/13 02:03:46;;;;;;;;;;;-2.00;99.90;;;;;;5117511;28;20432;-75
2024/01/13 02:06:11;;;;;;;;;;;-2.00;99.90;;;;;;5119057;28;19986;-75
2024/01/13 02:08:37;;;;;;;;;;;-2.00;99.90;;;;;;5118491;28;19950;-76
2024/01/13 02:11:03;;;;;;;;;;;-2.00;99.90;;;;;;5118182;28;19930;-76
2024/01/13 02:13:28;;;;;;;;;;;-2.00;99.90;;;;;;5112288;28;19952;-76
2024/01/13 02:15:54;;;;;;;;;;;-1.90;99.90;;;;;;5112585;27;19915;-75
2024/01/13 02:18:20;;;;;;;;;;;-2.00;99.90;;;;;;5117033;28;19903;-74
2024/01/13 02:20:45;;;;;;;;;;;-1.90;99.90;;;;;;5118177;28;19903;-75
2024/01/13 02:23:11;;;;;;;;;;;-1.90;99.90;;;;;;5118500;28;20372;-75
2024/01/13 02:25:36;;;;;;;;;;;-1.90;99.90;;;;;;5117588;27;19920;-75
2024/01/13 02:28:02;;;;;;;;;;;-2.00;99.90;;;;;;5118214;28;19907;-75
2024/01/13 02:30:27;;;;;;;;;;;-2.00;99.90;;;;;;5117959;28;20264;-75
2024/01/13 02:32:53;;;;;;;;;;;-2.00;99.90;;;;;;5111656;28;19904;-75
2024/01/13 02:35:18;;;;;;;;;;;-2.10;99.90;;;;;;5118167;28;19907;-76
2024/01/13 02:37:44;;;;;;;;;;;-2.10;99.90;;;;;;5117867;28;19907;-76
2024/01/13 02:40:10;;;;;;;;;;;-2.10;99.90;;;;;;5117536;28;19908;-76
2024/01/13 02:42:35;;;;;;;;;;;-2.00;99.90;;;;;;5117899;27;19911;-76
2024/01/13 02:45:01;;;;;;;;;;;-2.00;99.90;;;;;;5116402;28;19945;-76
2024/01/13 02:47:33;;;;;;;;;;;-2.00;99.90;;;;;;5116600;28;19907;-76
2024/01/13 02:49:58;;;;;;;;;;;-2.10;99.90;;;;;;5118045;28;20390;-76
2024/01/13 02:52:24;;;;;;;;;;;-2.10;99.90;;;;;;5116282;28;19908;-76
2024/01/13 02:54:49;;;;;;;;;;;-2.10;99.90;;;;;;5117445;28;19908;-76
2024/01/13 02:57:15;;;;;;;;;;;-2.10;99.90;;;;;;5117623;28;19916;-76
2024/01/13 02:59:40;;;;;;;;;;;-2.10;99.90;;;;;;5117533;28;19914;-77
2024/01/13 03:02:06;;;;;;;;;;;-2.10;99.90;;;;;;5117832;28;19908;-77
2024/01/13 03:04:32;;;;;;;;;;;-2.10;99.90;;;;;;5110677;28;19911;-76
2024/01/13 03:06:57;;;;;;;;;;;-2.10;99.90;;;;;;5117606;28;19914;-76
2024/01/13 03:09:23;;;;;;;;;;;-2.10;99.90;;;;;;5116168;28;19908;-76
2024/01/13 03:11:48;;;;;;;;;;;-2.20;99.90;;;;;;5116806;28;20494;-76
2024/01/13 03:14:14;;;;;;;;;;;-2.20;99.90;;;;;;5117396;28;19903;-76
2024/01/13 03:16:39;;;;;;;;;;;-2.10;99.90;;;;;;5109879;28;19908;-76
2024/01/13 03:19:05;;;;;;;;;;;-2.10;99.90;;;;;;5116843;28;20599;-76
2024/01/13 03:21:30;;;;;;;;;;;-2.10;99.90;;;;;;5117315;28;19957;-77
2024/01/13 03:23:56;;;;;;;;;;;-2.10;99.90;;;;;;5117121;28;19915;-76
2024/01/13 03:26:21;;;;;;;;;;;-2.10;99.90;;;;;;5116842;28;19939;-76
2024/01/13 03:28:47;;;;;;;;;;;-2.20;99.90;;;;;;5116861;28;19915;-76
2024/01/13 03:31:13;;;;;;;;;;;-2.10;99.90;;;;;;5115192;28;20287;-76
2024/01/13 03:33:39;;;;;;;;;;;-2.10;99.90;;;;;;5111580;28;19910;-76
2024/01/13 03:36:04;;;;;;;;;;;-2.10;99.90;;;;;;5117181;27;19904;-76
2024/01/13 03:38:30;;;;;;;;;;;-2.00;99.90;;;;;;5115358;28;19908;-77
2024/01/13 03:40:55;;;;;;;;;;;-2.00;99.90;;;;;;5115462;28;19998;-76
2024/01/13 03:43:21;;;;;;;;;;;-2.00;99.90;;;;;;5116581;28;19907;-76
2024/01/13 03:45:46;;;;;;;;;;;-2.10;99.90;;;;;;5115473;28;19907;-76
2024/01/13 03:48:12;;;;;;;;;;;-2.10;99.90;;;;;;5115208;28;19915;-77
2024/01/13 03:50:37;;;;;;;;;;;-2.10;99.90;;;;;;5108191;28;19904;-76
2024/01/13 03:53:03;;;;;;;;;;;-2.20;99.90;;;;;;5115095;28;20394;-77
2024/01/13 03:55:29;;;;;;;;;;;-2.20;99.90;;;;;;5115066;28;20382;-77
2024/01/13 03:57:54;;;;;;;;;;;-2.20;99.90;;;;;;5107320;28;19920;-77
2024/01/13 04:00:20;;;;;;;;;;;-2.20;99.90;;;;;;5109911;28;19996;-77
2024/01/13 04:02:45;;;;;;;;;;;-2.10;99.90;;;;;;5107343;28;19908;-77
2024/01/13 04:05:11;;;;;;;;;;;-2.20;99.90;;;;;;5096019;28;19916;-76
2024/01/13 04:07:36;;;;;;;;;;;-2.20;99.90;;;;;;5111126;28;19911;-77
2024/01/13 04:10:02;;;;;;;;;;;-2.20;99.90;;;;;;5116670;28;19904;-76
2024/01/13 04:12:27;;;;;;;;;;;-2.20;99.90;;;;;;5116300;28;19953;-76
2024/01/13 04:14:53;;;;;;;;;;;-2.20;99.90;;;;;;5115240;28;19932;-76
2024/01/13 04:17:18;;;;;;;;;;;-2.20;99.90;;;;;;5110564;28;19907;-76
2024/01/13 04:19:44;;;;;;;;;;;-2.20;99.90;;;;;;5115571;28;19911;-77
2024/01/13 04:22:09;;;;;;;;;;;-2.20;99.90;;;;;;5115126;28;19911;-77
2024/01/13 04:24:35;;;;;;;;;;;-2.20;99.90;;;;;;5114423;28;19910;-77
2024/01/13 04:27:01;;;;;;;;;;;-2.20;99.90;;;;;;5114436;28;20276;-77
2024/01/13 04:29:26;;;;;;;;;;;-2.20;99.90;;;;;;5116338;28;20030;-76
2024/01/13 04:31:52;;;;;;;;;;;-2.20;99.90;;;;;;5110629;28;19982;-76
2024/01/13 04:34:17;;;;;;;;;;;-2.10;99.90;;;;;;5116578;28;19914;-76
2024/01/13 04:36:43;;;;;;;;;;;-2.10;99.90;;;;;;5114832;28;20379;-76
2024/01/13 04:39:08;;;;;;;;;;;-2.10;99.90;;;;;;5116605;28;19904;-77
2024/01/13 04:41:34;;;;;;;;;;;-2.10;99.90;;;;;;5114613;28;19912;-77
2024/01/13 04:43:59;;;;;;;;;;;-2.10;99.90;;;;;;5116750;28;19911;-77
2024/01/13 04:46:25;;;;;;;;;;;-2.10;99.90;;;;;;5116157;28;19911;-77
2024/01/13 04:48:50;;;;;;;;;;;-2.20;99.90;;;;;;5109105;28;19915;-77
2024/01/13 04:51:16;;;;;;;;;;;-2.20;99.90;;;;;;5116378;28;19911;-77
2024/01/13 04:53:42;;;;;;;;;;;-2.20;99.90;;;;;;5102961;28;19904;-77
2024/01/13 04:56:07;;;;;;;;;;;-2.30;99.90;;;;;;5114991;28;20323;-77
2024/01/13 04:58:33;;;;;;;;;;;-2.30;99.90;;;;;;5116387;28;20292;-77
2024/01/13 05:00:58;;;;;;;;;;;-2.30;99.90;;;;;;5116301;28;19938;-77
2024/01/13 05:03:24;;;;;;;;;;;-2.20;99.90;;;;;;5116433;28;20375;-77
2024/01/13 05:05:49;;;;;;;;;;;-2.30;99.90;;;;;;5116238;28;19911;-77
2024/01/13 05:08:15;;;;;;;;;;;-2.30;99.90;;;;;;5116149;28;19914;-77
2024/01/13 05:10:40;;;;;;;;;;;-2.20;99.90;;;;;;5114633;28;19911;-77
2024/01/13 05:13:06;;;;;;;;;;;-2.10;99.90;;;;;;5114560;28;20464;-77
2024/01/13 05:15:32;;;;;;;;;;;-2.10;99.90;;;;;;5111159;28;20494;-77
2024/01/13 05:17:57;;;;;;;;;;;-2.00;99.90;;;;;;5112965;28;20304;-77
2024/01/13 05:20:23;;;;;;;;;;;-1.90;99.90;;;;;;5115187;28;20264;-77
2024/01/13 05:22:48;;;;;;;;;;;-1.80;99.90;;;;;;5115468;28;19915;-77
2024/01/13 05:25:14;;;;;;;;;;;-1.80;99.90;;;;;;5114292;28;20002;-77
2024/01/13 05:27:39;;;;;;;;;;;-1.80;99.90;;;;;;5115883;28;19904;-77
2024/01/13 05:30:05;;;;;;;;;;;-1.80;99.90;;;;;;5116290;28;19910;-77
2024/01/13 05:32:31;;;;;;;;;;;-1.80;99.90;;;;;;5113665;27;19911;-77
2024/01/13 05:34:56;;;;;;;;;;;-1.70;99.90;;;;;;5116121;28;19907;-77
2024/01/13 05:37:22;;;;;;;;;;;-1.80;99.90;;;;;;5116986;28;19985;-77
2024/01/13 05:39:48;;;;;;;;;;;-1.80;99.90;;;;;;5119333;28;19908;-77
2024/01/13 05:42:13;;;;;;;;;;;-1.80;99.90;;;;;;5118245;28;20003;-78
2024/01/13 05:44:39;;;;;;;;;;;-1.80;99.90;;;;;;5119214;28;20083;-77
2024/01/13 05:47:05;;;;;;;;;;;-1.80;99.90;;;;;;5119513;28;19918;-77
2024/01/13 05:49:30;;;;;;;;;;;-1.90;99.90;;;;;;5118957;28;19957;-77
2024/01/13 05:51:56;;;;;;;;;;;-1.90;99.90;;;;;;5117717;28;19907;-77
2024/01/13 05:54:21;;;;;;;;;;;-2.00;99.90;;;;;;5118980;28;19912;-77
2024/01/13 05:56:47;;;;;;;;;;;-2.00;99.90;;;;;;5118867;28;20414;-77
2024/01/13 05:59:12;;;;;;;;;;;-2.10;99.90;;;;;;5118994;28;20387;-77
2024/01/13 06:01:38;;;;;;;;;;;-2.10;99.90;;;;;;5118968;28;20600;-78
2024/01/13 06:04:04;;;;;;;;;;;-2.10;99.90;;;;;;5117551;28;20438;-78
2024/01/13 06:06:29;;;;;;;;;;;-2.10;99.90;;;;;;5118668;28;19912;-77
2024/01/13 06:08:55;;;;;;;;;;;-2.10;99.90;;;;;;5117763;28;20323;-78
2024/01/13 06:11:20;;;;;;;;;;;-2.20;99.90;;;;;;5116853;28;19903;-77
2024/01/13 06:13:47;;;;;;;;;;;-2.10;99.90;;;;;;5118715;28;19904;-77
2024/01/13 06:16:14;;;;;;;;;;;-2.10;99.90;;;;;;5109686;28;19999;-77
2024/01/13 06:18:39;;;;;;;;;;;-2.10;99.90;;;;;;5118632;28;19918;-77
2024/01/13 06:21:05;;;;;;;;;;;-2.10;99.90;;;;;;5117271;28;20375;-77
2024/01/13 06:23:30;;;;;;;;;;;-2.20;99.90;;;;;;5116932;28;19903;-77
2024/01/13 06:25:56;;;;;;;;;;;-2.20;99.90;;;;;;5116862;28;19908;-77
2024/01/13 06:28:22;;;;;;;;;;;-2.20;99.90;;;;;;5118120;27;19908;-77
2024/01/13 06:30:48;;;;;;;;;;;-2.30;99.90;;;;;;5116611;28;19919;-77
2024/01/13 06:33:14;;;;;;;;;;;-2.30;99.90;;;;;;5118351;28;20367;-77
2024/01/13 06:35:40;;;;;;;;;;;-2.30;99.90;;;;;;5118790;28;19911;-77
2024/01/13 06:38:05;;;;;;;;;;;-2.20;99.90;;;;;;5118253;28;19907;-77
2024/01/13 06:40:31;;;;;;;;;;;-2.20;99.90;;;;;;5117721;28;20283;-77
2024/01/13 06:42:56;;;;;;;;;;;-2.20;99.90;;;;;;5118220;28;20401;-77
2024/01/13 06:45:22;;;;;;;;;;;-2.20;99.90;;;;;;5118274;28;19904;-78
2024/01/13 06:47:47;;;;;;;;;;;-2.20;99.90;;;;;;5117297;28;19914;-77
2024/01/13 06:50:13;;;;;;;;;;;-2.20;99.90;;;;;;5117873;28;19910;-77
2024/01/13 06:52:38;;;;;;;;;;;-2.20;99.90;;;;;;5103865;28;19935;-76
2024/01/13 06:55:06;;;;;;;;;;;-2.20;99.90;;;;;;5110151;28;19946;-77
2024/01/13 06:57:31;;;;;;;;;;;-2.20;99.90;;;;;;5113064;27;19920;-76
2024/01/13 06:59:57;;;;;;;;;;;-2.20;99.90;;;;;;5113275;28;19945;-76
2024/01/13 07:02:22;;;;;;;;;;;-2.30;99.90;;;;;;5112760;28;19903;-75
2024/01/13 07:04:50;;;;;;;;;;;-2.30;99.90;;;;;;5111346;28;19914;-75
2024/01/13 07:07:15;;;;;;;;;;;-2.40;99.90;;;;;;5113188;28;20117;-76
2024/01/13 07:09:41;;;;;;;;;;;-2.40;99.90;;;;;;5111007;28;19912;-76
2024/01/13 07:12:06;;;;;;;;;;;-2.30;99.90;;;;;;5112969;28;19912;-76
2024/01/13 07:14:32;;;;;;;;;;;-2.30;99.90;;;;;;5105051;28;19912;-76
2024/01/13 07:16:57;;;;;;;;;;;-2.20;99.90;;;;;;5101710;28;19922;-76
2024/01/13 07:19:23;;;;;;;;;;;-2.20;99.90;;;;;;5092649;28;19908;-75
2024/01/13 07:21:48;;;;;;;;;;;-2.20;99.90;;;;;;5095121;28;19937;-77
2024/01/13 07:24:14;;;;;;;;;;;-2.20;99.90;;;;;;5097088;28;19963;-76
2024/01/13 07:26:40;;;;;;;;;;;-2.10;99.90;;;;;;5107035;28;20275;-77
2024/01/13 07:29:05;;;;;;;;;;;-2.10;99.90;;;;;;5111020;28;19912;-77
2024/01/13 07:31:31;;;;;;;;;;;-2.00;99.90;;;;;;5109316;28;20374;-78
2024/01/13 07:33:56;;;;;;;;;;;-2.00;99.90;;;;;;5112794;28;19919;-76
2024/01/13 07:36:22;;;;;;;;;;;-1.90;99.90;;;;;;5111479;28;19942;-77
2024/01/13 07:38:47;;;;;;;;;;;-1.90;99.90;;;;;;5110983;28;20427;-77
2024/01/13 07:41:13;;;;;;;;;;;-1.90;99.90;;;;;;5112357;28;19908;-76
2024/01/13 07:43:39;;;;;;;;;;;-1.80;99.90;;;;;;5111036;28;19904;-76
2024/01/13 07:46:04;;;;;;;;;;;-1.80;99.90;;;;;;5111546;28;19904;-76
2024/01/13 07:48:29;;;;;;;;;;;-1.80;99.90;;;;;;5111835;28;20486;-76
2024/01/13 07:50:55;;;;;;;;;;;-1.80;99.90;;;;;;5110837;28;19907;-76
2024/01/13 07:53:21;;;;;;;;;;;-1.80;99.90;;;;;;5112447;28;19908;-76
2024/01/13 07:55:46;;;;;;;;;;;-1.70;99.90;;;;;;5095043;28;19916;-78
2024/01/13 07:58:12;;;;;;;;;;;-1.70;99.90;;;;;;5100707;28;19911;-78
2024/01/13 08:00:37;;;;;;;;;;;-1.70;99.90;;;;;;5111415;28;19961;-77
2024/01/13 08:03:04;;;;;;;;;;;-1.70;99.90;;;;;;5112134;28;19908;-77
2024/01/13 08:05:31;;;;;;;;;;;-1.50;99.90;;;;;;5111735;28;19907;-78
2024/01/13 08:07:56;;;;;;;;;;;-1.50;99.90;;;;;;5106446;28;19982;-78
2024/01/13 08:10:22;;;;;;;;;;;-1.40;99.90;;;;;;5108105;28;19907;-77
2024/01/13 08:12:48;;;;;;;;;;;-1.30;99.90;;;;;;5109454;28;20475;-78
2024/01/13 08:15:14;;;;;;;;;;;-1.30;99.90;;;;;;5099926;28;19908;-78
2024/01/13 08:17:39;;;;;;;;;;;-1.20;99.90;;;;;;5108632;28;19914;-78
2024/01/13 08:20:05;;;;;;;;;;;-1.10;99.90;;;;;;5107862;28;20399;-77
2024/01/13 08:22:31;;;;;;;;;;;-1.00;99.90;;;;;;5107346;28;20426;-77
2024/01/13 08:24:56;;;;;;;;;;;-1.00;99.90;;;;;;5105881;28;19999;-77
2024/01/13 08:27:23;;;;;;;;;;;-1.00;99.90;;;;;;5105036;28;20362;-78
2024/01/13 08:29:48;;;;;;;;;;;-0.90;99.90;;;;;;5102360;28;19955;-77
2024/01/13 08:32:14;;;;;;;;;;;-0.90;99.90;;;;;;5111103;28;19914;-80
2024/01/13 08:34:39;;;;;;;;;;;-0.80;99.90;;;;;;5110041;28;19905;-80
2024/01/13 08:37:05;;;;;;;;;;;-0.70;99.90;;;;;;5105766;28;20288;-81
2024/01/13 08:39:32;;;;;;;;;;;-0.70;99.90;;;;;;5100645;28;19908;-80
2024/01/13 08:41:57;;;;;;;;;;;-0.70;99.90;;;;;;5109082;28;19908;-82
2024/01/13 08:44:23;;;;;;;;;;;-0.60;99.90;;;;;;5108627;28;20092;-80
2024/01/13 08:46:48;;;;;;;;;;;-0.60;99.90;;;;;;5110527;28;19952;-81
2024/01/13 08:49:14;;;;;;;;;;;-0.60;99.90;;;;;;5108478;28;19945;-81
2024/01/13 08:51:39;;;;;;;;;;;-0.60;99.90;;;;;;5110978;28;19947;-82
2024/01/13 08:54:05;;;;;;;;;;;-0.50;99.90;;;;;;5109941;28;19908;-81
2024/01/13 08:56:34;;;;;;;;;;;-0.50;99.90;;;;;;5106027;28;19916;-81
2024/01/13 08:59:00;;;;;;;;;;;-0.40;99.90;;;;;;5113334;28;19929;-81
2024/01/13 09:01:25;;;;;;;;;;;-0.40;99.90;;;;;;5110662;28;19908;-81
2024/01/13 09:03:51;;;;;;;;;;;-0.30;99.90;;;;;;5112031;28;20325;-81
2024/01/13 09:06:16;;;;;;;;;;;-0.30;99.90;;;;;;5115145;28;19908;-79
2024/01/13 09:08:42;;;;;;;;;;;-0.30;99.90;;;;;;5108719;28;19914;-81
2024/01/13 09:11:09;;;;;;;;;;;-0.30;99.90;;;;;;5116871;28;19912;-80
2024/01/13 09:13:34;;;;;;;;;;;-0.20;99.90;;;;;;5115421;28;19908;-82
2024/01/13 09:16:00;;;;;;;;;;;-0.20;99.90;;;;;;5114799;28;19908;-80
2024/01/13 09:18:25;;;;;;;;;;;-0.20;99.90;;;;;;5117074;28;19907;-82
2024/01/13 09:20:51;;;;;;;;;;;-0.10;99.90;;;;;;5111867;28;19908;-81
2024/01/13 09:23:16;;;;;;;;;;;-0.10;99.90;;;;;;5109957;28;20360;-80
2024/01/13 09:25:42;;;;;;;;;;;-0.10;99.90;;;;;;5115671;28;19904;-79
2024/01/13 09:28:09;;;;;;;;;;;-0.10;99.90;;;;;;5108011;28;19912;-81
2024/01/13 09:30:35;;;;;;;;;;;-0.10;99.90;;;;;;5113820;28;19943;-80
2024/01/13 09:33:01;;;;;;;;;;;-0.10;99.90;;;;;;5113862;28;19908;-79
2024/01/13 09:35:30;;;;;;;;;;;0.00;99.90;;;;;;5114658;28;19933;-82
2024/01/13 09:37:59;;;;;;;;;;;0.10;99.90;;;;;;5115705;28;20654;-79
2024/01/13 09:40:25;;;;;;;;;;;0.20;99.90;;;;;;5116140;28;19931;-80
2024/01/13 09:43:06;;;;;;;;;;;0.20;99.90;;;;;;5110327;28;20272;-80
2024/01/13 09:45:32;;;;;;;;;;;0.20;99.90;;;;;;5113657;28;20429;-78
2024/01/13 09:47:58;;;;;;;;;;;0.30;99.90;;;;;;5112662;28;19912;-78
2024/01/13 09:50:24;;;;;;;;;;;0.30;99.90;;;;;;5115428;28;19903;-80
2024/01/13 09:52:49;;;;;;;;;;;0.40;99.90;;;;;;5114983;27;19903;-80
2024/01/13 09:55:16;;;;;;;;;;;0.40;99.90;;;;;;5113100;28;19952;-79
2024/01/13 09:57:42;;;;;;;;;;;0.60;99.90;;;;;;5111732;28;19979;-83
2024/01/13 10:00:08;;;;;;;;;;;0.50;99.90;;;;;;5117234;28;19908;-80
2024/01/13 10:02:34;;;;;;;;;;;0.50;99.90;;;;;;5108403;27;19908;-81
2024/01/13 10:04:59;;;;;;;;;;;0.50;99.90;;;;;;5111049;28;19911;-80
2024/01/13 10:07:26;;;;;;;;;;;0.60;99.90;;;;;;5111740;28;20375;-79
2024/01/13 10:09:51;;;;;;;;;;;0.70;99.90;;;;;;5111192;28;19998;-77
2024/01/13 10:12:17;;;;;;;;;;;0.80;99.90;;;;;;5108454;28;19962;-80
2024/01/13 10:14:42;;;;;;;;;;;0.90;99.90;;;;;;5108524;28;19908;-78
2024/01/13 10:17:08;;;;;;;;;;;1.00;99.90;;;;;;5107243;28;19903;-76
2024/01/13 10:19:35;;;;;;;;;;;1.00;99.90;;;;;;5114043;28;19903;-76
2024/01/13 10:22:01;;;;;;;;;;;1.10;99.90;;;;;;5110872;28;20003;-77
2024/01/13 10:24:27;;;;;;;;;;;1.20;99.90;;;;;;5114049;28;19911;-77
2024/01/13 10:26:53;;;;;;;;;;;1.20;99.90;;;;;;5115312;28;19927;-86
2024/01/13 10:29:22;;;;;;;;;;;1.10;99.90;;;;;;5116888;28;19908;-76
2024/01/13 10:31:53;;;;;;;;;;;1.10;99.90;;;;;;5111358;28;19907;-76
2024/01/13 10:34:19;;;;;;;;;;;1.10;99.90;;;;;;5112222;28;19918;-76
2024/01/13 10:36:45;;;;;;;;;;;1.30;99.90;;;;;;5112399;28;19903;-76
2024/01/13 10:39:10;;;;;;;;;;;1.20;99.90;;;;;;5116626;28;19903;-75
2024/01/13 10:41:37;;;;;;;;;;;1.30;99.90;;;;;;5116616;28;19998;-75
2024/01/13 10:44:07;;;;;;;;;;;1.30;99.90;;;;;;5109629;28;19914;-76
2024/01/13 10:46:33;;;;;;;;;;;1.40;99.90;;;;;;5108851;28;20007;-75
2024/01/13 10:49:02;;;;;;;;;;;1.50;99.90;;;;;;5108852;28;19964;-76
2024/01/13 10:51:27;;;;;;;;;;;1.70;99.90;;;;;;5107104;28;20382;-75
2024/01/13 10:53:54;;;;;;;;;;;1.80;99.90;;;;;;5114517;28;19908;-76
2024/01/13 10:56:20;;;;;;;;;;;1.80;99.90;;;;;;5110080;28;19919;-75
2024/01/13 10:58:46;;;;;;;;;;;1.80;99.90;;;;;;5114082;28;19904;-74
2024/01/13 11:01:12;;;;;;;;;;;1.80;99.90;;;;;;5095364;28;19956;-74
2024/01/13 11:03:38;;;;;;;;;;;1.90;99.90;;;;;;5104213;28;19911;-74
2024/01/13 11:06:04;;;;;;;;;;;2.00;99.90;;;;;;5105794;28;19904;-74
2024/01/13 11:08:30;;;;;;;;;;;2.10;99.90;;;;;;5109316;28;19911;-75
2024/01/13 11:10:56;;;;;;;;;;;2.20;99.90;;;;;;5107047;28;19914;-74
2024/01/13 11:13:24;;;;;;;;;;;2.10;99.90;;;;;;5106998;28;20006;-75
2024/01/13 11:15:57;;;;;;;;;;;2.10;99.90;;;;;;5103502;28;19915;-75
2024/01/13 11:18:25;;;;;;;;;;;2.00;99.90;;;;;;5102604;28;20005;-75
2024/01/13 11:21:02;;;;;;;;;;;1.90;99.90;;;;;;5106508;28;19908;-74
2024/01/13 11:23:34;;;;;;;;;;;1.80;99.90;;;;;;5099181;28;20374;-74
2024/01/13 11:26:00;;;;;;;;;;;1.80;99.90;;;;;;5106947;28;19907;-74
2024/01/13 11:28:41;;;;;;;;;;;1.70;99.90;;;;;;5102568;28;19908;-75
2024/01/13 11:31:10;;;;;;;;;;;1.70;99.90;;;;;;5103981;28;19915;-74
2024/01/13 11:33:36;;;;;;;;;;;1.70;99.90;;;;;;5103777;28;19928;-75
2024/01/13 11:36:01;;;;;;;;;;;1.80;99.90;;;;;;5105442;28;20380;-75
2024/01/13 11:38:27;;;;;;;;;;;1.80;99.90;;;;;;5104507;28;19912;-75
2024/01/13 11:40:54;;;;;;;;;;;1.90;99.90;;;;;;5107133;28;19947;-75
2024/01/13 11:43:26;;;;;;;;;;;1.90;99.90;;;;;;5103942;28;19915;-74
2024/01/13 11:45:51;;;;;;;;;;;2.00;99.90;;;;;;5101261;28;19904;-74
2024/01/13 11:48:29;;;;;;;;;;;2.00;99.90;;;;;;5107443;28;19933;-76
2024/01/13 11:50:55;;;;;;;;;;;2.10;99.90;;;;;;5102400;28;19912;-75
2024/01/13 11:53:40;;;;;;;;;;;2.20;99.90;;;;;;5106830;28;19907;-77
2024/01/13 11:56:06;;;;;;;;;;;2.30;99.90;;;;;;5103247;28;19927;-76
2024/01/13 11:58:38;;;;;;;;;;;2.40;99.90;;;;;;5103246;28;19907;-76
2024/01/13 12:01:04;;;;;;;;;;;2.50;99.90;;;;;;5106897;28;19923;-76
2024/01/13 12:03:30;;;;;;;;;;;2.60;99.90;;;;;;5104360;28;19908;-76
2024/01/13 12:05:57;;;;;;;;;;;2.70;99.90;;;;;;5098684;28;19923;-75
2024/01/13 12:08:25;;;;;;;;;;;2.70;99.90;;;;;;5106465;28;19918;-76
2024/01/13 12:10:53;;;;;;;;;;;2.80;99.90;;;;;;5100784;28;19908;-76
2024/01/13 12:13:19;;;;;;;;;;;2.90;99.90;;;;;;5107556;28;19976;-76
2024/01/13 12:15:48;;;;;;;;;;;3.10;99.90;;;;;;5103796;28;20022;-76
2024/01/13 12:18:18;;;;;;;;;;;3.20;99.90;;;;;;5104599;28;20007;-76
2024/01/13 12:20:43;;;;;;;;;;;3.20;99.90;;;;;;5107051;28;19958;-76
2024/01/13 12:23:09;;;;;;;;;;;3.30;99.90;;;;;;5103984;28;19908;-76
2024/01/13 12:25:34;;;;;;;;;;;3.40;99.90;;;;;;5099615;28;19956;-76
2024/01/13 12:28:00;;;;;;;;;;;3.50;99.90;;;;;;5105675;28;19923;-76
2024/01/13 12:30:25;;;;;;;;;;;3.60;99.90;;;;;;5105645;28;19914;-76
2024/01/13 12:32:51;;;;;;;;;;;3.70;99.90;;;;;;5104861;28;20439;-75
2024/01/13 12:35:17;;;;;;;;;;;3.80;99.90;;;;;;5100904;28;19986;-76
2024/01/13 12:37:43;;;;;;;;;;;3.90;99.90;;;;;;5095162;28;19904;-76
2024/01/13 12:40:09;;;;;;;;;;;3.90;99.90;;;;;;5106473;28;19912;-76
2024/01/13 12:42:38;;;;;;;;;;;4.00;99.90;;;;;;5105638;28;19919;-76
2024/01/13 12:45:04;;;;;;;;;;;4.00;99.90;;;;;;5103363;28;20006;-76
2024/01/13 12:47:29;;;;;;;;;;;4.10;99.90;;;;;;5109345;27;20006;-76
2024/01/13 12:50:05;;;;;;;;;;;4.10;99.90;;;;;;5104796;28;20313;-76
2024/01/13 12:52:30;;;;;;;;;;;4.20;99.90;;;;;;5109800;28;20380;-76
2024/01/13 12:54:56;;;;;;;;;;;4.20;99.90;;;;;;5104204;28;20272;-76
2024/01/13 12:57:21;;;;;;;;;;;4.30;99.90;;;;;;5107805;28;19927;-76
2024/01/13 12:59:47;;;;;;;;;;;4.30;99.90;;;;;;5104140;28;19907;-76
2024/01/13 13:02:12;;;;;;;;;;;4.40;99.90;;;;;;5108454;28;19945;-76
2024/01/13 13:04:38;;;;;;;;;;;4.40;99.90;;;;;;5108902;28;19908;-76
2024/01/13 13:07:03;;;;;;;;;;;4.40;99.90;;;;;;5107198;27;19951;-76
2024/01/13 13:09:29;;;;;;;;;;;4.50;99.90;;;;;;5111065;28;19947;-76
2024/01/13 13:11:55;;;;;;;;;;;4.60;99.90;;;;;;5103183;28;19904;-78
2024/01/13 13:14:22;;;;;;;;;;;4.60;99.90;;;;;;5113063;28;19914;-76
2024/01/13 13:16:47;;;;;;;;;;;4.70;99.90;;;;;;5105296;28;19959;-76
2024/01/13 13:19:13;;;;;;;;;;;4.70;99.90;;;;;;5110603;28;19903;-75
2024/01/13 13:21:40;;;;;;;;;;;4.70;99.90;;;;;;5108270;28;20295;-76
2024/01/13 13:24:05;;;;;;;;;;;4.70;99.90;;;;;;5109043;28;19947;-76
2024/01/13 13:26:31;;;;;;;;;;;4.70;99.90;;;;;;5106714;28;19915;-75
2024/01/13 13:28:56;;;;;;;;;;;4.80;99.90;;;;;;5112111;28;20387;-76
2024/01/13 13:31:22;;;;;;;;;;;4.80;99.90;;;;;;5105954;28;19907;-76
2024/01/13 13:33:47;;;;;;;;;;;4.90;99.90;;;;;;5111412;28;19910;-76
2024/01/13 13:36:13;;;;;;;;;;;5.20;99.90;;;;;;5108835;28;20305;-74
2024/01/13 13:38:39;;;;;;;;;;;5.40;99.90;;;;;;5105957;28;19942;-74
2024/01/13 13:41:04;;;;;;;;;;;5.50;99.90;;;;;;5111332;28;19907;-74
2024/01/13 13:43:32;;;;;;;;;;;5.50;99.90;;;;;;5108606;28;20348;-74
2024/01/13 13:45:58;;;;;;;;;;;5.50;99.90;;;;;;5100799;28;19946;-75
2024/01/13 13:48:26;;;;;;;;;;;5.50;99.90;;;;;;5109609;28;19908;-74
2024/01/13 13:50:52;;;;;;;;;;;5.50;99.90;;;;;;5100996;28;20337;-74
2024/01/13 13:53:17;;;;;;;;;;;5.60;99.90;;;;;;5109064;28;20006;-75
2024/01/13 13:55:43;;;;;;;;;;;5.60;99.90;;;;;;5107925;28;19955;-74
2024/01/13 13:58:08;;;;;;;;;;;5.70;99.90;;;;;;5107686;28;19951;-75
2024/01/13 14:00:34;;;;;;;;;;;5.70;99.90;;;;;;5109304;28;19957;-75
2024/01/13 14:02:59;;;;;;;;;;;5.70;99.90;;;;;;5112152;28;19903;-76
2024/01/13 14:05:25;;;;;;;;;;;5.70;99.90;;;;;;5112207;28;19903;-76
2024/01/13 14:07:50;;;;;;;;;;;5.70;99.90;;;;;;5112651;28;19903;-76
2024/01/13 14:10:16;;;;;;;;;;;5.70;99.90;;;;;;5111189;28;19915;-77
2024/01/13 14:12:41;;;;;;;;;;;5.70;99.90;;;;;;5114464;28;19911;-76
2024/01/13 14:15:07;;;;;;;;;;;5.70;99.90;;;;;;5114801;28;19934;-76